Time;durP1;ratioP1;P1;durP2;ratioP2;P2;SDS_P1;SDS_P2;PMS_P1;PMS_P2;Temp;Humidity;BMP_temperature;BMP_pressure;BME280_temperature;BME280_humidity;BME280_pressure;Samples;Min_cycle;Max_cycle;Signal;HPM_P1;HPM_P2
2021/11/28 00:01:38;;;;;;;29.72;23.02;;;;;;;8.71;100.00;100081.91;1781151;80;21598;-85
2021/11/28 00:04:05;;;;;;;27.67;23.18;;;;;;;8.68;100.00;100080.38;1786111;80;21077;-84
2021/11/28 00:06:34;;;;;;;28.98;23.22;;;;;;;8.68;100.00;100084.27;1756502;80;21083;-83
2021/11/28 00:14:18;;;;;;;26.00;20.12;;;;;;;8.68;100.00;100076.48;1717837;80;21057;-85
2021/11/28 00:16:46;;;;;;;26.82;20.65;;;;;;;8.68;100.00;100079.89;1785834;80;21066;-83
2021/11/28 00:19:13;;;;;;;25.20;19.37;;;;;;;8.73;100.00;100086.52;1785898;80;21057;-84
2021/11/28 00:21:40;;;;;;;24.47;18.10;;;;;;;8.75;100.00;100080.71;1785644;80;21870;-85
2021/11/28 00:24:08;;;;;;;26.15;17.87;;;;;;;8.77;100.00;100083.54;1785784;80;21069;-84
2021/11/28 00:26:35;;;;;;;24.07;17.07;;;;;;;8.79;100.00;100081.66;1785796;80;21500;-83
2021/11/28 00:29:08;;;;;;;26.23;18.07;;;;;;;8.80;100.00;100071.64;1785809;80;20990;-83
2021/11/28 00:31:33;;;;;;;19.37;17.20;;;;;;;8.84;100.00;100070.48;1786217;80;21038;-83
2021/11/28 00:34:00;;;;;;;27.15;18.30;;;;;;;8.88;100.00;100068.92;1785401;80;22231;-84
2021/11/28 00:36:27;;;;;;;19.42;17.20;;;;;;;8.89;100.00;100064.09;1756864;80;20990;-83
2021/11/28 00:38:56;;;;;;;22.27;17.77;;;;;;;8.89;100.00;100059.73;1785851;80;21093;-84
2021/11/28 00:41:23;;;;;;;24.87;17.90;;;;;;;8.89;100.00;100045.45;1785568;80;21164;-83
2021/11/28 00:43:51;;;;;;;25.82;18.07;;;;;;;8.90;100.00;100042.38;1785116;80;21526;-85
2021/11/28 00:46:18;;;;;;;26.62;18.90;;;;;;;8.86;100.00;100046.98;1757477;80;21817;-84
2021/11/28 00:48:45;;;;;;;26.90;21.07;;;;;;;8.80;100.00;100050.87;1785518;80;21081;-87
2021/11/28 00:53:50;;;;;;;26.45;19.27;;;;;;;8.72;100.00;100056.30;1785631;80;20955;-84
2021/11/28 00:56:18;;;;;;;24.65;17.35;;;;;;;8.75;100.00;100054.30;1783050;80;21018;-84
2021/11/28 00:58:47;;;;;;;22.87;17.50;;;;;;;8.76;100.00;100052.06;1785477;80;21838;-84
2021/11/28 01:01:16;;;;;;;20.75;17.05;;;;;;;8.75;100.00;100045.67;1785814;80;21089;-86
2021/11/28 01:03:45;;;;;;;22.42;18.40;;;;;;;8.75;100.00;100045.67;1785461;80;22282;-84
2021/11/28 01:06:13;;;;;;;21.48;17.55;;;;;;;8.73;100.00;100043.20;1770116;80;21033;-83
2021/11/28 01:08:42;;;;;;;21.80;16.95;;;;;;;8.72;100.00;100045.92;1787576;79;21097;-85
2021/11/28 01:11:11;;;;;;;20.90;16.48;;;;;;;8.73;100.00;100044.50;1792688;79;21614;-84
2021/11/28 01:13:40;;;;;;;22.25;17.60;;;;;;;8.71;100.00;100054.16;1783459;79;21037;-84
2021/11/28 01:16:09;;;;;;;22.52;16.75;;;;;;;8.69;100.00;100046.98;1785882;80;21070;-84
2021/11/28 01:18:37;;;;;;;22.52;17.90;;;;;;;8.64;100.00;100040.00;1786062;80;21525;-83
2021/11/28 01:21:07;;;;;;;22.73;17.17;;;;;;;8.63;100.00;100039.64;1786003;80;21588;-84
2021/11/28 01:23:35;;;;;;;21.07;17.15;;;;;;;8.62;100.00;100045.32;1755869;80;21040;-83
2021/11/28 01:26:02;;;;;;;24.65;17.57;;;;;;;8.63;100.00;100047.43;1760232;80;21092;-82
2021/11/28 01:28:33;;;;;;;19.67;15.63;;;;;;;8.59;100.00;100048.62;1786754;80;21061;-83
2021/11/28 01:31:02;;;;;;;24.70;17.27;;;;;;;8.55;100.00;100045.44;1786915;80;21060;-84
2021/11/28 01:33:33;;;;;;;22.70;16.87;;;;;;;8.56;100.00;100048.84;1786782;80;21037;-84
2021/11/28 01:36:01;;;;;;;20.65;17.67;;;;;;;8.58;100.00;100036.58;1786491;80;21145;-85
2021/11/28 01:38:28;;;;;;;26.45;16.85;;;;;;;8.62;100.00;100040.58;1786078;80;21045;-84
2021/11/28 01:40:56;;;;;;;25.12;17.70;;;;;;;8.65;100.00;100039.06;1757279;80;21089;-81
2021/11/28 01:43:24;;;;;;;25.40;19.15;;;;;;;8.62;100.00;100045.32;1786215;80;21034;-83
2021/11/28 01:45:54;;;;;;;22.62;17.32;;;;;;;8.60;100.00;100044.60;1785358;80;21756;-83
2021/11/28 01:48:22;;;;;;;21.97;17.17;;;;;;;8.60;100.00;100047.68;1786087;80;22170;-83
2021/11/28 01:50:53;;;;;;;21.82;17.27;;;;;;;8.57;100.00;100041.41;1786097;80;21014;-85
2021/11/28 01:53:25;;;;;;;24.02;17.10;;;;;;;8.52;100.00;100045.20;1786113;80;21070;-84
2021/11/28 01:55:53;;;;;;;22.45;17.32;;;;;;;8.54;100.00;100050.27;1785666;80;21065;-83
2021/11/28 01:58:26;;;;;;;25.40;18.17;;;;;;;8.52;100.00;100046.95;1754445;80;21041;-83
2021/11/28 02:00:57;;;;;;;23.95;17.07;;;;;;;8.51;100.00;100044.00;1757677;80;21147;-82
2021/11/28 02:03:27;;;;;;;26.85;17.60;;;;;;;8.48;100.00;100045.06;1782688;80;21603;-82
2021/11/28 02:05:59;;;;;;;23.55;17.62;;;;;;;8.52;100.00;100050.84;1785921;80;21025;-85
2021/11/28 02:08:26;;;;;;;23.92;17.85;;;;;;;8.54;100.00;100048.97;1786175;80;21116;-83
2021/11/28 02:10:55;;;;;;;21.80;16.32;;;;;;;8.57;100.00;100042.26;1785755;80;21085;-83
2021/11/28 02:13:25;;;;;;;24.80;18.17;;;;;;;8.56;100.00;100044.95;1785893;80;21128;-83
2021/11/28 02:15:56;;;;;;;23.35;18.25;;;;;;;8.52;100.00;100041.30;1781252;79;21708;-82
2021/11/28 02:18:25;;;;;;;23.30;16.83;;;;;;;8.46;100.00;100045.61;1778808;80;21069;-82
2021/11/28 02:20:56;;;;;;;20.72;16.42;;;;;;;8.46;100.00;100053.87;1779046;80;21562;-82
2021/11/28 02:23:24;;;;;;;24.82;17.65;;;;;;;8.44;100.00;100062.23;1779107;80;27951;-82
2021/11/28 02:25:59;;;;;;;24.07;16.95;;;;;;;8.43;100.00;100069.20;1778539;80;21157;-85
2021/11/28 02:28:28;;;;;;;21.30;16.50;;;;;;;8.44;100.00;100072.16;1729306;80;21029;-83
2021/11/28 02:30:56;;;;;;;23.45;17.27;;;;;;;8.45;100.00;100075.09;1780153;80;21061;-83
2021/11/28 02:33:24;;;;;;;24.10;18.25;;;;;;;8.46;100.00;100074.15;1778701;80;21485;-85
2021/11/28 02:35:52;;;;;;;21.73;17.90;;;;;;;8.49;100.00;100078.34;1778809;80;21046;-85
2021/11/28 02:38:20;;;;;;;25.20;18.02;;;;;;;8.48;100.00;100072.79;1778976;80;21790;-84
2021/11/28 02:40:47;;;;;;;23.27;17.05;;;;;;;8.47;100.00;100081.03;1778532;80;21629;-83
2021/11/28 02:43:14;;;;;;;22.22;17.87;;;;;;;8.47;100.00;100086.70;1779213;80;21073;-83
2021/11/28 02:45:42;;;;;;;24.10;18.55;;;;;;;8.49;100.00;100093.91;1778826;80;21010;-83
2021/11/28 02:48:13;;;;;;;27.52;19.48;;;;;;;8.49;100.00;100102.50;1778874;80;21128;-83
2021/11/28 02:50:42;;;;;;;;;;;;;;;8.46;100.00;100097.50;1757045;80;21018;-83
2021/11/28 02:53:10;;;;;;;25.25;20.17;;;;;;;8.46;100.00;100103.98;1779125;80;20164;-85
2021/11/28 02:55:48;;;;;;;23.65;19.57;;;;;;;8.45;100.00;100110.12;1754281;80;21096;-84
2021/11/28 02:58:20;;;;;;;27.20;19.45;;;;;;;8.46;100.00;100103.98;1778637;80;21054;-83
2021/11/28 03:00:56;;;;;;;;;;;;;;;8.49;100.00;100099.09;1754184;80;21428;-83
2021/11/28 03:03:25;;;;;;;26.62;19.15;;;;;;;8.51;100.00;100090.25;1779087;80;21135;-84
2021/11/28 03:05:53;;;;;;;23.83;19.30;;;;;;;8.52;100.00;100091.91;1778796;80;20994;-82
2021/11/28 03:08:21;;;;;;;24.37;18.45;;;;;;;8.53;100.00;100100.51;1779876;80;21045;-83
2021/11/28 03:10:54;;;;;;;25.62;20.12;;;;;;;8.55;100.00;100102.53;1778632;80;21587;-83
2021/11/28 03:13:36;;;;;;;28.60;20.52;;;;;;;8.60;100.00;100103.00;1778844;80;21018;-82
2021/11/28 03:16:07;;;;;;;34.73;20.12;;;;;;;8.64;100.00;100101.84;1756978;80;21149;-83
2021/11/28 03:18:35;;;;;;;27.62;19.57;;;;;;;8.67;100.00;100102.08;1785566;80;21093;-83
2021/11/28 03:21:08;;;;;;;26.68;20.30;;;;;;;8.69;100.00;100106.69;1785815;80;21003;-83
2021/11/28 03:23:38;;;;;;;27.95;19.05;;;;;;;8.73;100.00;100115.88;1785568;80;21037;-85
2021/11/28 03:26:19;;;;;;;24.87;19.32;;;;;;;8.74;100.00;100122.73;1786047;80;21052;-83
2021/11/28 03:28:59;;;;;;;26.30;18.48;;;;;;;8.77;100.00;100125.08;1785783;80;21157;-82
2021/11/28 03:31:53;;;;;;;24.35;18.65;;;;;;;8.79;100.00;100122.39;1785815;80;21120;-83
2021/11/28 03:34:32;;;;;;;24.32;18.05;;;;;;;8.76;100.00;100116.12;1647102;80;21089;-83
2021/11/28 03:37:01;;;;;;;23.15;18.95;;;;;;;8.80;100.00;100124.05;1757365;80;21081;-84
2021/11/28 03:39:30;;;;;;;23.22;19.07;;;;;;;8.80;100.00;100127.45;1785308;80;21013;-84
2021/11/28 03:42:03;;;;;;;26.75;21.10;;;;;;;8.78;100.00;100128.52;1785945;80;21682;-83
2021/11/28 03:44:30;;;;;;;30.88;20.37;;;;;;;8.74;100.00;100126.62;1785560;80;21018;-83
2021/11/28 03:47:04;;;;;;;27.98;21.80;;;;;;;8.69;100.00;100126.16;1785819;80;21602;-86
2021/11/28 03:49:33;;;;;;;26.00;19.48;;;;;;;8.65;100.00;100123.42;1756023;80;21544;-83
2021/11/28 03:52:03;;;;;;;24.85;18.70;;;;;;;8.64;100.00;100128.25;1786601;80;20994;-84
2021/11/28 03:54:33;;;;;;;24.67;18.98;;;;;;;8.63;100.00;100131.33;1786468;80;20975;-83
2021/11/28 03:57:00;;;;;;;24.47;19.17;;;;;;;8.61;100.00;100133.20;1785896;80;21335;-83
2021/11/28 03:59:29;;;;;;;29.23;18.87;;;;;;;8.57;100.00;100133.55;1784065;79;21405;-83
2021/11/28 04:01:57;;;;;;;23.50;18.32;;;;;;;8.50;100.00;100130.56;1776619;80;21102;-83
2021/11/28 04:04:25;;;;;;;30.85;18.57;;;;;;;8.46;100.00;100122.16;1767879;81;21117;-86
2021/11/28 04:07:06;;;;;;;24.65;18.75;;;;;;;8.44;100.00;100127.11;1778908;80;21839;-83
2021/11/28 04:09:34;;;;;;;26.10;19.45;;;;;;;8.45;100.00;100137.36;1768763;80;21019;-83
2021/11/28 04:12:04;;;;;;;22.98;18.23;;;;;;;8.45;100.00;100136.06;1774812;80;21638;-83
2021/11/28 04:14:35;;;;;;;23.38;18.30;;;;;;;8.45;100.00;100150.81;1786322;80;21076;-84
2021/11/28 04:17:04;;;;;;;25.02;17.45;;;;;;;8.40;100.00;100147.27;1785131;80;21539;-83
2021/11/28 04:19:33;;;;;;;23.52;18.55;;;;;;;8.38;100.00;100147.84;1782026;80;21158;-83
2021/11/28 04:22:02;;;;;;;23.07;18.92;;;;;;;8.36;100.00;100147.14;1757654;80;21045;-82
2021/11/28 04:24:32;;;;;;;24.80;19.35;;;;;;;8.34;100.00;100145.94;1786541;80;21022;-84
2021/11/28 04:26:59;;;;;;;22.05;19.00;;;;;;;8.35;100.00;100155.86;1786832;80;21009;-83
2021/11/28 04:29:26;;;;;;;24.52;18.25;;;;;;;8.35;100.00;100154.08;1786550;80;21291;-82
2021/11/28 04:45:04;;;;;;;28.65;21.62;;;;;;;8.96;100.00;100162.64;1784297;80;23420;-79
2021/11/28 04:47:32;;;;;;;29.50;20.88;;;;;;;9.16;100.00;100159.83;1755266;81;21700;-82
2021/11/28 04:50:05;;;;;;;38.38;20.80;;;;;;;9.21;100.00;100162.08;1750375;81;21224;-83
2021/11/28 04:52:33;;;;;;;27.37;21.35;;;;;;;9.19;100.00;100163.96;1700636;81;21519;-82
2021/11/28 04:55:00;;;;;;;31.10;21.20;;;;;;;9.23;100.00;100162.80;1754510;81;21089;-82
2021/11/28 04:57:28;;;;;;;28.07;21.05;;;;;;;9.17;100.00;100165.87;1754483;81;21025;-81
2021/11/28 04:59:56;;;;;;;26.07;19.70;;;;;;;9.04;100.00;100170.69;1756316;81;20942;-80
2021/11/28 05:02:23;;;;;;;29.67;20.48;;;;;;;8.94;100.00;100169.72;1758148;81;21128;-79
2021/11/28 05:04:51;;;;;;;29.37;19.80;;;;;;;8.86;100.00;100173.36;1728873;81;21104;-82
2021/11/28 05:07:23;;;;;;;26.20;20.55;;;;;;;8.79;100.00;100180.80;1752960;81;20970;-83
2021/11/28 05:09:55;;;;;;;26.65;19.77;;;;;;;8.79;100.00;100179.02;1728204;81;21475;-83
2021/11/28 05:12:22;;;;;;;32.10;20.35;;;;;;;8.77;100.00;100174.41;1756433;80;21029;-84
2021/11/28 05:14:53;;;;;;;32.75;20.35;;;;;;;8.68;100.00;100169.44;1758218;80;21088;-84
2021/11/28 05:17:20;;;;;;;27.65;19.12;;;;;;;8.64;100.00;100174.52;1752866;81;21085;-83
2021/11/28 05:19:51;;;;;;;35.25;19.95;;;;;;;8.69;100.00;100175.48;1720766;83;21081;-82
2021/11/28 05:22:28;;;;;;;25.25;19.62;;;;;;;8.82;100.00;100163.22;1720075;83;21553;-85
2021/11/28 05:24:57;;;;;;;26.97;18.98;;;;;;;8.90;100.00;100169.13;1695753;83;21077;-85
2021/11/28 05:27:26;;;;;;;31.33;18.92;;;;;;;8.91;100.00;100179.05;1626520;86;21906;-84
2021/11/28 05:29:53;;;;;;;33.92;18.92;;;;;;;8.93;100.00;100178.48;1672385;84;21122;-84
2021/11/28 05:32:21;;;;;;;24.23;17.67;;;;;;;9.00;100.00;100182.27;1672414;85;21497;-82
2021/11/28 05:35:07;;;;;;;25.82;17.48;;;;;;;9.10;100.00;100187.09;1672252;85;21152;-85
2021/11/28 05:37:36;;;;;;;31.40;18.75;;;;;;;9.11;100.00;100186.64;1665204;85;21484;-84
2021/11/28 05:40:07;;;;;;;22.20;17.15;;;;;;;9.12;100.00;100180.51;1669766;84;21642;-85
2021/11/28 05:42:34;;;;;;;28.83;17.85;;;;;;;9.18;100.00;100185.23;1643281;85;21078;-84
2021/11/28 05:45:05;;;;;;;29.63;17.80;;;;;;;9.15;100.00;100186.75;1696306;83;21048;-84
2021/11/28 05:47:51;;;;;;;22.70;17.05;;;;;;;9.19;100.00;100193.37;1689796;83;21135;-82
2021/11/28 05:50:37;;;;;;;26.50;17.57;;;;;;;9.31;100.00;100194.22;1655345;83;21065;-84
2021/11/28 05:53:05;;;;;;;26.60;16.93;;;;;;;9.35;100.00;100198.70;1714604;82;21167;-83
2021/11/28 05:55:32;;;;;;;27.32;16.93;;;;;;;9.37;100.00;100204.13;1692670;83;21038;-85
2021/11/28 05:57:59;;;;;;;26.85;16.55;;;;;;;9.37;100.00;100200.23;1699955;83;21176;-84
2021/11/28 06:00:28;;;;;;;26.23;16.73;;;;;;;9.39;100.00;100200.95;1700192;84;21026;-84
2021/11/28 06:03:03;;;;;;;22.22;16.97;;;;;;;9.38;100.00;100194.09;1700021;83;21641;-83
2021/11/28 06:05:43;;;;;;;21.00;16.48;;;;;;;9.35;100.00;100201.30;1683786;83;21070;-84
2021/11/28 06:08:15;;;;;;;21.07;16.32;;;;;;;9.29;100.00;100212.50;1697342;84;21547;-84
2021/11/28 06:10:44;;;;;;;22.55;17.12;;;;;;;9.20;100.00;100210.63;1697350;83;21128;-84
2021/11/28 06:13:11;;;;;;;22.70;16.37;;;;;;;9.12;100.00;100215.58;1670635;85;21022;-85
2021/11/28 06:15:39;;;;;;;23.12;17.40;;;;;;;9.08;100.00;100218.88;1692207;84;21082;-83
2021/11/28 06:18:26;;;;;;;24.00;17.17;;;;;;;9.12;100.00;100220.77;1649407;85;21167;-84
2021/11/28 06:20:59;;;;;;;24.47;18.12;;;;;;;9.13;100.00;100217.23;1652451;85;21140;-83
2021/11/28 06:23:28;;;;;;;24.43;18.17;;;;;;;9.12;100.00;100212.97;1665060;84;21097;-84
2021/11/28 06:25:55;;;;;;;24.45;17.27;;;;;;;9.04;100.00;100213.54;1692262;84;21054;-82
2021/11/28 06:28:23;;;;;;;22.52;16.35;;;;;;;9.02;100.00;100220.61;1699996;83;21120;-82
2021/11/28 06:30:50;;;;;;;21.23;16.50;;;;;;;9.00;100.00;100226.41;1676502;83;21135;-83
2021/11/28 06:33:19;;;;;;;22.48;16.07;;;;;;;9.00;100.00;100227.71;1666359;84;21050;-84
2021/11/28 06:36:05;;;;;;;21.15;16.20;;;;;;;9.03;100.00;100230.55;1700231;83;21117;-84
2021/11/28 06:38:44;;;;;;;21.20;16.87;;;;;;;9.04;100.00;100233.02;1692298;84;21030;-82
2021/11/28 06:41:29;;;;;;;22.87;17.25;;;;;;;9.08;100.00;100224.52;1665897;84;20974;-83
2021/11/28 06:43:57;;;;;;;26.62;19.45;;;;;;;9.12;100.00;100209.08;1694315;84;21141;-82
2021/11/28 06:46:24;;;;;;;23.38;17.48;;;;;;;9.14;100.00;100211.91;1697933;82;21160;-82
2021/11/28 06:48:52;;;;;;;28.65;18.90;;;;;;;9.15;100.00;100210.13;1698888;82;21092;-83
2021/11/28 06:51:35;;;;;;;23.70;18.25;;;;;;;9.19;100.00;100205.52;1697618;84;21052;-83
2021/11/28 06:54:04;;;;;;;23.05;16.80;;;;;;;9.19;100.00;100210.72;1696558;82;21105;-83
2021/11/28 06:56:35;;;;;;;21.75;15.85;;;;;;;9.15;100.00;100209.67;1688162;84;21151;-82
2021/11/28 06:59:08;;;;;;;19.27;15.43;;;;;;;9.22;100.00;100210.50;1718595;82;21023;-82
2021/11/28 07:01:37;;;;;;;19.02;15.80;;;;;;;9.26;100.00;100222.30;1697841;83;21062;-83
2021/11/28 07:04:11;;;;;;;19.32;14.53;;;;;;;9.26;100.00;100219.70;1673911;83;21073;-82
2021/11/28 07:06:58;;;;;;;30.32;15.58;;;;;;;9.26;100.00;100223.14;1715687;82;21055;-82
2021/11/28 07:09:27;;;;;;;18.12;14.75;;;;;;;9.23;100.00;100219.95;1715758;83;21203;-82
2021/11/28 07:11:56;;;;;;;20.95;15.25;;;;;;;9.21;100.00;100210.14;1660661;85;21054;-82
2021/11/28 07:14:23;;;;;;;20.15;15.80;;;;;;;9.20;100.00;100207.19;1700848;84;21026;-81
2021/11/28 07:16:52;;;;;;;24.70;15.23;;;;;;;9.18;100.00;100203.87;1700860;84;21030;-81
2021/11/28 07:19:19;;;;;;;21.40;15.48;;;;;;;9.16;100.00;100206.59;1703698;82;21127;-82
2021/11/28 07:21:57;;;;;;;20.17;16.15;;;;;;;9.20;100.00;100208.48;1679677;84;21124;-82
2021/11/28 07:24:26;;;;;;;21.82;16.82;;;;;;;9.25;100.00;100205.09;1670721;84;21049;-82
2021/11/28 07:26:53;;;;;;;25.17;18.80;;;;;;;9.25;100.00;100205.89;1700993;82;21124;-80
2021/11/28 07:29:22;;;;;;;39.00;20.90;;;;;;;9.22;100.00;100206.12;1700843;84;21062;-81
2021/11/28 07:31:50;;;;;;;35.50;22.17;;;;;;;9.22;100.00;100198.81;1700960;84;21605;-79
2021/11/28 07:34:18;;;;;;;57.75;26.60;;;;;;;9.25;100.00;100199.89;1667274;84;21062;-81
2021/11/28 07:37:04;;;;;;;35.03;24.25;;;;;;;9.23;100.00;100201.28;1701097;84;21058;-80
2021/11/28 07:39:33;;;;;;;32.50;24.18;;;;;;;9.27;100.00;100197.98;1700580;84;21046;-80
2021/11/28 07:42:00;;;;;;;44.03;25.55;;;;;;;9.29;100.00;100201.29;1700674;84;21096;-80
2021/11/28 07:44:35;;;;;;;37.85;26.42;;;;;;;9.26;100.00;100202.36;1688369;84;21049;-80
2021/11/28 07:47:20;;;;;;;42.95;28.55;;;;;;;9.33;100.00;100197.98;1670793;84;21046;-79
2021/11/28 07:49:52;;;;;;;43.65;29.30;;;;;;;9.39;100.00;100193.61;1662221;84;21112;-80
2021/11/28 07:52:22;;;;;;;39.40;29.63;;;;;;;9.41;100.00;100189.13;1700953;84;21061;-81
2021/11/28 07:54:50;;;;;;;43.83;30.10;;;;;;;9.39;100.00;100197.51;1700092;84;21625;-81
2021/11/28 07:57:19;;;;;;;45.75;30.68;;;;;;;9.34;100.00;100196.56;1695914;84;21554;-78
2021/11/28 08:00:08;;;;;;;47.95;29.57;;;;;;;9.34;100.00;100194.45;1700847;84;21049;-81
2021/11/28 08:02:38;;;;;;;;;;;;;;;9.34;100.00;100194.45;1696067;84;21086;-81
2021/11/28 08:05:23;;;;;;;51.60;33.85;;;;;;;9.47;100.00;100188.20;1700866;84;20187;-82
2021/11/28 08:08:11;;;;;;;60.00;36.90;;;;;;;9.54;100.00;100189.02;1694201;82;21114;-80
2021/11/28 08:10:44;;;;;;;50.55;34.98;;;;;;;9.54;100.00;100190.31;1694986;82;21050;-80
2021/11/28 08:13:11;;;;;;;47.33;33.38;;;;;;;9.52;100.00;100189.59;1692167;84;21624;-80
2021/11/28 08:15:40;;;;;;;46.50;32.17;;;;;;;9.47;100.00;100192.09;1689563;84;21123;-79
2021/11/28 08:18:08;;;;;;;49.77;33.38;;;;;;;9.41;100.00;100189.97;1661034;84;22391;-80
2021/11/28 08:20:35;;;;;;;46.08;33.33;;;;;;;9.37;100.00;100200.23;1688904;84;21579;-79
2021/11/28 08:23:19;;;;;;;46.45;33.90;;;;;;;9.35;100.00;100199.52;1688590;84;21055;-79
2021/11/28 08:25:56;;;;;;;46.37;32.93;;;;;;;9.30;100.00;100198.56;1659177;84;21634;-79
2021/11/28 08:28:19;;;;;;;50.25;34.45;;;;;;;9.29;100.00;100188.30;1668835;84;20993;-79
2021/11/28 08:30:46;;;;;;;54.83;37.38;;;;;;;9.27;100.00;100183.69;1670771;84;21451;-78
2021/11/28 08:33:16;;;;;;;59.80;39.70;;;;;;;9.28;100.00;100189.23;1696687;84;21128;-81
2021/11/28 08:36:03;;;;;;;66.30;41.23;;;;;;;9.28;100.00;100191.84;1670444;84;21037;-83
2021/11/28 08:38:32;;;;;;;61.40;40.43;;;;;;;9.24;100.00;100189.95;1670313;84;21137;-83
2021/11/28 08:40:59;;;;;;;67.50;41.80;;;;;;;9.18;100.00;100198.67;1700638;82;21112;-83
2021/11/28 08:43:26;;;;;;;63.60;41.00;;;;;;;9.12;100.00;100199.98;1700613;84;21113;-82
2021/11/28 08:45:53;;;;;;;67.00;41.30;;;;;;;9.07;100.00;100195.14;1670905;84;21097;-82
2021/11/28 08:48:20;;;;;;;77.53;42.62;;;;;;;9.04;100.00;100184.16;1709469;83;21657;-83
2021/11/28 08:50:47;;;;;;;68.42;42.80;;;;;;;9.04;100.00;100185.45;1675158;83;21535;-82
2021/11/28 08:53:15;;;;;;;61.25;38.67;;;;;;;9.03;100.00;100188.51;1693258;84;21051;-83
2021/11/28 08:55:42;;;;;;;64.25;39.70;;;;;;;9.02;100.00;100188.63;1723914;83;21049;-84
2021/11/28 08:58:11;;;;;;;56.65;37.85;;;;;;;8.98;100.00;100182.84;1722831;83;21037;-84
2021/11/28 09:00:39;;;;;;;51.35;34.40;;;;;;;8.97;100.00;100182.48;1723462;83;21081;-84
2021/11/28 09:03:06;;;;;;;55.70;36.80;;;;;;;8.95;100.00;100183.91;1723254;82;21833;-83
2021/11/28 09:05:33;;;;;;;52.25;35.10;;;;;;;8.94;100.00;100176.21;1723469;83;21389;-83
2021/11/28 09:08:02;;;;;;;50.05;34.67;;;;;;;8.94;100.00;100174.45;1694692;82;21061;-83
2021/11/28 09:10:31;;;;;;;45.43;33.13;;;;;;;8.94;100.00;100178.35;1723637;83;21096;-82
2021/11/28 09:12:59;;;;;;;46.18;34.35;;;;;;;8.96;100.00;100179.08;1723491;83;21005;-83
2021/11/28 09:15:28;;;;;;;54.15;35.85;;;;;;;8.97;100.00;100179.40;1723681;82;21156;-82
2021/11/28 09:18:08;;;;;;;54.40;37.67;;;;;;;8.97;100.00;100178.59;1723178;83;21106;-83
2021/11/28 09:20:30;;;;;;;70.05;41.08;;;;;;;8.98;100.00;100175.05;1694286;83;21022;-83
2021/11/28 09:25:25;;;;;;;43.13;32.70;;;;;;;9.02;100.00;100173.05;1724138;83;21585;-82
2021/11/28 09:27:57;;;;;;;40.63;32.05;;;;;;;9.02;100.00;100173.05;1722261;83;21061;-84
2021/11/28 09:30:25;;;;;;;35.45;28.07;;;;;;;9.06;100.00;100177.05;1723570;83;21065;-82
2021/11/28 09:32:55;;;;;;;37.00;28.00;;;;;;;9.09;100.00;100185.44;1723772;83;21567;-81
2021/11/28 09:35:23;;;;;;;37.48;28.55;;;;;;;9.11;100.00;100190.05;1716342;83;21489;-81
2021/11/28 09:37:52;;;;;;;33.70;27.52;;;;;;;9.19;100.00;100200.33;1715755;83;21059;-81
2021/11/28 09:40:21;;;;;;;32.42;26.33;;;;;;;9.23;100.00;100207.78;1715724;83;21524;-81
2021/11/28 09:42:56;;;;;;;28.80;24.65;;;;;;;9.23;100.00;100197.87;1718191;83;21057;-82
2021/11/28 09:45:26;;;;;;;26.27;23.38;;;;;;;9.22;100.00;100206.12;1720114;83;21540;-82
2021/11/28 09:47:57;;;;;;;27.20;23.50;;;;;;;9.19;100.00;100199.03;1719651;83;21178;-81
2021/11/28 09:50:27;;;;;;;29.80;23.13;;;;;;;9.17;100.00;100198.34;1720240;83;21072;-80
2021/11/28 09:52:56;;;;;;;27.90;24.35;;;;;;;9.18;100.00;100203.41;1720263;83;21573;-80
2021/11/28 09:55:27;;;;;;;28.55;24.57;;;;;;;9.24;100.00;100200.83;1691180;83;21042;-81
2021/11/28 09:57:54;;;;;;;27.35;24.00;;;;;;;9.21;100.00;100199.75;1693105;83;21089;-81
2021/11/28 10:00:22;;;;;;;28.45;24.90;;;;;;;9.16;100.00;100202.69;1694508;83;21725;-81
2021/11/28 10:02:49;;;;;;;27.37;24.30;;;;;;;9.12;100.00;100196.09;1723622;83;21018;-81
2021/11/28 10:05:17;;;;;;;28.55;25.45;;;;;;;9.12;100.00;100193.49;1719994;83;21165;-81
2021/11/28 10:07:47;;;;;;;29.48;26.20;;;;;;;9.14;100.00;100200.67;1720286;83;20967;-80
2021/11/28 10:10:20;;;;;;;31.02;27.17;;;;;;;9.14;100.00;100197.63;1721660;81;21554;-83
2021/11/28 10:12:50;;;;;;;27.05;24.10;;;;;;;9.13;100.00;100207.66;1723447;81;21073;-81
2021/11/28 10:15:25;;;;;;;29.90;24.32;;;;;;;9.10;100.00;100207.88;1694470;83;21057;-81
2021/11/28 10:17:54;;;;;;;27.40;24.05;;;;;;;9.08;100.00;100213.68;1723625;83;21100;-81
2021/11/28 10:20:25;;;;;;;27.58;23.20;;;;;;;9.05;100.00;100211.78;1718837;83;21875;-81
2021/11/28 10:22:53;;;;;;;;;;;;;;;8.98;100.00;100208.81;1718219;83;21046;-82
2021/11/28 10:25:31;;;;;;;24.75;21.82;;;;;;;8.92;100.00;100204.09;1717372;82;20331;-83
2021/11/28 10:28:09;;;;;;;25.75;23.05;;;;;;;8.89;100.00;100207.74;1694832;83;21398;-81
2021/11/28 10:30:41;;;;;;;32.25;26.15;;;;;;;8.83;100.00;100199.94;1689792;84;21121;-82
2021/11/28 10:33:15;;;;;;;41.75;27.42;;;;;;;8.81;100.00;100193.20;1723966;83;21569;-81
2021/11/28 10:36:05;;;;;;;31.97;26.57;;;;;;;8.78;100.00;100196.83;1720835;82;21026;-81
2021/11/28 10:38:38;;;;;;;33.78;26.30;;;;;;;8.78;100.00;100196.83;1697826;83;21033;-81
2021/11/28 10:41:24;;;;;;;37.10;27.93;;;;;;;8.86;100.00;100192.38;1726811;83;21428;-82
2021/11/28 10:43:51;;;;;;;40.10;27.80;;;;;;;8.91;100.00;100189.44;1687709;83;21141;-83
2021/11/28 10:46:30;;;;;;;33.83;27.85;;;;;;;8.91;100.00;100187.66;1706566;83;21037;-83
2021/11/28 10:49:11;;;;;;;31.12;26.25;;;;;;;8.92;100.00;100185.91;1715649;83;21019;-80
2021/11/28 10:51:51;;;;;;;33.65;27.32;;;;;;;8.95;100.00;100180.47;1699624;83;21046;-82
2021/11/28 10:54:41;;;;;;;33.85;27.93;;;;;;;9.00;100.00;100173.98;1669942;84;21047;-81
2021/11/28 10:57:12;;;;;;;32.13;26.70;;;;;;;9.13;100.00;100173.89;1669645;84;21189;-81
2021/11/28 10:59:55;;;;;;;32.15;27.45;;;;;;;9.20;100.00;100184.65;1699741;84;21092;-81
2021/11/28 11:02:33;;;;;;;32.80;28.10;;;;;;;9.22;100.00;100178.84;1700215;83;21045;-81
2021/11/28 11:05:04;;;;;;;32.67;27.67;;;;;;;9.21;100.00;100186.77;1690735;83;21018;-82
2021/11/28 11:07:44;;;;;;;32.23;27.07;;;;;;;9.21;100.00;100193.25;1667241;84;21107;-81
2021/11/28 11:10:34;;;;;;;30.00;25.90;;;;;;;9.27;100.00;100188.88;1722694;81;21051;-82
2021/11/28 11:12:58;;;;;;;31.48;26.97;;;;;;;9.29;100.00;100194.80;1679057;83;21054;-82
2021/11/28 11:15:45;;;;;;;32.45;28.40;;;;;;;9.32;100.00;100188.08;1723831;83;21087;-82
2021/11/28 11:18:16;;;;;;;30.02;25.88;;;;;;;9.37;100.00;100185.94;1691173;83;21098;-82
2021/11/28 11:20:49;;;;;;;29.37;26.35;;;;;;;9.40;100.00;100188.31;1719378;83;21138;-82
2021/11/28 11:23:38;;;;;;;37.75;29.30;;;;;;;9.44;100.00;100195.41;1694803;83;21224;-80
2021/11/28 11:26:16;;;;;;;33.60;29.15;;;;;;;9.44;100.00;100202.72;1686530;84;21034;-81
2021/11/28 11:29:08;;;;;;;30.23;27.02;;;;;;;9.47;100.00;100192.09;1689268;83;21048;-81
2021/11/28 11:31:38;;;;;;;29.90;26.57;;;;;;;9.51;100.00;100187.48;1691892;84;21534;-81
2021/11/28 11:34:28;;;;;;;29.82;26.65;;;;;;;9.54;100.00;100190.31;1697224;84;21125;-81
2021/11/28 11:37:11;;;;;;;30.90;27.20;;;;;;;9.55;100.00;100183.69;1655814;84;21123;-81
2021/11/28 11:39:34;;;;;;;29.05;26.00;;;;;;;9.58;100.00;100180.02;1693645;84;21077;-81
2021/11/28 11:42:02;;;;;;;29.20;25.95;;;;;;;9.63;100.00;100181.31;1695149;83;21224;-81
2021/11/28 11:44:29;;;;;;;32.30;26.90;;;;;;;9.72;100.00;100174.59;1694726;83;21091;-81
2021/11/28 11:47:01;;;;;;;31.02;26.70;;;;;;;9.82;100.00;100179.87;1723774;82;21062;-81
2021/11/28 11:49:30;;;;;;;32.13;28.02;;;;;;;9.90;100.00;100181.86;1695235;83;21160;-79
2021/11/28 11:51:58;;;;;;;29.80;26.65;;;;;;;9.96;100.00;100178.80;1702094;81;21032;-80